Weston, Illinois
Current Conditions -  °F | °C
As of 12:15 AM on Monday 26 Jan 2015 (Local Time) from KPNT Reporting Station
Scattered Clouds Scattered Clouds  
Wind Chill: 16°   Ceiling: Unl
Heat Index: 25°   Visibility: 10mi
Dew Point: 20°   Wind: 8mph
Humidity: 84%   Direction: 350°N
Pressure: 29.98"   Gusts: NA
Location:  40.7409°N, 88.7189°W
Report Text: KPNT 260615Z AUTO 35007KT 10SM SCT022 M04/M06 A2998 RMK AO2 T10411065
Loading
Personal Weather Stations






























Interactive Weather Map New forecast layout! Learn more

10-Day Weather Forecast

Advertisements
Track Severe Weather on mobile